createdAt,value
2023-08-29T00:02:25.859Z,100.00
2023-08-29T00:04:52.384Z,100.00
2023-08-29T00:07:18.935Z,100.00
2023-08-29T00:09:45.446Z,100.00
2023-08-29T00:12:12.213Z,100.00
2023-08-29T00:14:38.855Z,100.00
2023-08-29T00:17:05.569Z,100.00
2023-08-29T00:19:32.311Z,100.00
2023-08-29T00:22:00.044Z,100.00
2023-08-29T00:24:28.013Z,100.00
2023-08-29T00:26:54.742Z,100.00
2023-08-29T00:29:21.252Z,100.00
2023-08-29T00:31:48.181Z,100.00
2023-08-29T00:34:14.728Z,100.00
2023-08-29T00:36:41.215Z,100.00
2023-08-29T00:39:07.696Z,100.00
2023-08-29T00:41:34.203Z,100.00
2023-08-29T00:44:00.986Z,100.00
2023-08-29T00:46:28.097Z,100.00
2023-08-29T00:48:55.457Z,100.00
2023-08-29T00:51:21.929Z,100.00
2023-08-29T00:53:48.568Z,100.00
2023-08-29T00:56:19.059Z,100.00
2023-08-29T00:58:45.691Z,100.00
2023-08-29T01:01:13.760Z,100.00
2023-08-29T01:03:40.946Z,100.00
2023-08-29T01:06:07.703Z,100.00
2023-08-29T01:08:34.386Z,100.00
2023-08-29T01:11:24.609Z,100.00
2023-08-29T01:14:08.118Z,100.00
2023-08-29T01:16:46.394Z,100.00
2023-08-29T01:19:15.249Z,100.00
2023-08-29T01:22:00.074Z,100.00
2023-08-29T01:25:09.470Z,100.00
2023-08-29T01:27:36.876Z,100.00
2023-08-29T01:30:05.165Z,100.00
2023-08-29T01:32:33.094Z,100.00
2023-08-29T01:35:00.382Z,100.00
2023-08-29T01:37:27.591Z,100.00
2023-08-29T01:39:54.318Z,100.00
2023-08-29T01:42:22.053Z,100.00
2023-08-29T01:44:48.827Z,100.00
2023-08-29T01:47:15.589Z,100.00
2023-08-29T01:49:43.307Z,100.00
2023-08-29T01:52:10.543Z,100.00
2023-08-29T01:54:37.935Z,100.00
2023-08-29T01:57:06.829Z,100.00
2023-08-29T01:59:35.197Z,100.00
2023-08-29T02:02:03.434Z,100.00
2023-08-29T02:04:30.746Z,100.00
2023-08-29T02:06:57.653Z,100.00
2023-08-29T02:09:24.733Z,100.00
2023-08-29T02:11:51.600Z,100.00
2023-08-29T02:14:18.361Z,100.00
2023-08-29T02:16:45.317Z,100.00
2023-08-29T02:19:12.130Z,100.00
2023-08-29T02:21:39.477Z,100.00
2023-08-29T02:24:06.968Z,100.00
2023-08-29T02:26:33.796Z,100.00
2023-08-29T02:29:00.667Z,100.00
2023-08-29T02:31:27.547Z,100.00
2023-08-29T02:33:54.846Z,100.00
2023-08-29T02:36:21.461Z,100.00
2023-08-29T02:38:48.056Z,100.00
2023-08-29T02:41:14.711Z,100.00
2023-08-29T02:43:41.455Z,100.00
2023-08-29T02:46:08.446Z,100.00
2023-08-29T02:48:35.167Z,100.00
2023-08-29T02:51:01.905Z,100.00
2023-08-29T02:53:29.629Z,100.00
2023-08-29T02:55:57.313Z,100.00
2023-08-29T02:58:24.326Z,100.00
2023-08-29T03:01:00.966Z,100.00
2023-08-29T03:03:27.988Z,100.00
2023-08-29T03:05:58.203Z,100.00
2023-08-29T03:08:25.435Z,100.00
2023-08-29T03:10:53.425Z,100.00
2023-08-29T03:13:20.166Z,100.00
2023-08-29T03:15:47.188Z,100.00
2023-08-29T03:18:14.164Z,100.00
2023-08-29T03:20:41.655Z,100.00
2023-08-29T03:23:08.254Z,100.00
2023-08-29T03:25:35.203Z,100.00
2023-08-29T03:28:02.014Z,100.00
2023-08-29T03:30:29.085Z,100.00
2023-08-29T03:32:55.706Z,100.00
2023-08-29T03:35:22.304Z,100.00
2023-08-29T03:37:48.960Z,100.00
2023-08-29T03:40:15.639Z,100.00
2023-08-29T03:42:42.281Z,100.00
2023-08-29T03:45:09.467Z,100.00
2023-08-29T03:47:38.567Z,100.00
2023-08-29T03:50:06.705Z,100.00
2023-08-29T03:52:33.644Z,100.00
2023-08-29T03:55:00.205Z,100.00
2023-08-29T03:57:29.756Z,100.00
2023-08-29T03:59:56.615Z,100.00
2023-08-29T04:02:23.192Z,100.00
2023-08-29T04:04:53.234Z,100.00
2023-08-29T04:07:20.134Z,100.00
2023-08-29T04:09:46.648Z,100.00
2023-08-29T04:12:13.135Z,100.00
2023-08-29T04:14:39.595Z,100.00
2023-08-29T04:17:06.156Z,100.00
2023-08-29T04:19:32.662Z,100.00
2023-08-29T04:21:59.141Z,100.00
2023-08-29T04:24:25.715Z,100.00
2023-08-29T04:26:52.417Z,100.00
2023-08-29T04:29:18.880Z,100.00
2023-08-29T04:31:45.459Z,100.00
2023-08-29T04:34:12.089Z,100.00
2023-08-29T04:36:38.598Z,100.00
2023-08-29T04:39:05.253Z,100.00
2023-08-29T04:41:31.830Z,100.00
2023-08-29T04:43:58.504Z,100.00
2023-08-29T04:46:25.115Z,100.00
2023-08-29T04:48:51.768Z,100.00
2023-08-29T04:51:18.244Z,100.00
2023-08-29T04:53:44.755Z,100.00
2023-08-29T04:56:11.894Z,100.00
2023-08-29T04:58:38.450Z,100.00
2023-08-29T05:01:05.043Z,100.00
2023-08-29T05:03:31.768Z,100.00
2023-08-29T05:05:59.043Z,100.00
2023-08-29T05:08:25.663Z,100.00
2023-08-29T05:10:52.164Z,100.00
2023-08-29T05:13:19.048Z,100.00
2023-08-29T05:15:45.677Z,100.00
2023-08-29T05:18:12.250Z,100.00
2023-08-29T05:20:39.174Z,100.00
2023-08-29T05:23:06.113Z,100.00
2023-08-29T05:25:32.664Z,100.00
2023-08-29T05:27:59.340Z,100.00
2023-08-29T05:30:25.830Z,100.00
2023-08-29T05:32:52.339Z,100.00
2023-08-29T05:35:18.885Z,100.00
2023-08-29T05:37:45.449Z,100.00
2023-08-29T05:40:12.245Z,100.00
2023-08-29T05:42:39.223Z,100.00
2023-08-29T05:45:06.657Z,100.00
2023-08-29T05:47:33.321Z,100.00
2023-08-29T05:50:00.471Z,100.00
2023-08-29T05:52:26.969Z,100.00
2023-08-29T05:54:53.430Z,100.00
2023-08-29T05:57:19.928Z,100.00
2023-08-29T05:59:46.425Z,100.00
2023-08-29T06:02:13.534Z,100.00
2023-08-29T06:04:40.112Z,100.00
2023-08-29T06:07:07.156Z,100.00
2023-08-29T06:09:36.313Z,100.00
2023-08-29T06:12:03.886Z,100.00
2023-08-29T06:14:30.495Z,100.00
2023-08-29T06:16:57.100Z,100.00
2023-08-29T06:19:23.819Z,100.00
2023-08-29T06:21:50.311Z,100.00
2023-08-29T06:24:16.819Z,100.00
2023-08-29T06:26:43.419Z,100.00
2023-08-29T06:29:09.909Z,100.00
2023-08-29T06:31:36.810Z,100.00
2023-08-29T06:34:03.306Z,100.00
2023-08-29T06:36:29.840Z,100.00
2023-08-29T06:38:56.328Z,100.00
2023-08-29T06:41:22.850Z,100.00
2023-08-29T06:43:49.360Z,100.00
2023-08-29T06:46:16.511Z,100.00
2023-08-29T06:48:43.127Z,100.00
2023-08-29T06:51:10.464Z,100.00
2023-08-29T06:53:36.964Z,100.00
2023-08-29T06:56:05.194Z,100.00
2023-08-29T06:58:31.799Z,100.00
2023-08-29T07:00:58.446Z,100.00
2023-08-29T07:03:25.125Z,100.00
2023-08-29T07:05:51.779Z,100.00
2023-08-29T07:08:18.241Z,100.00
2023-08-29T07:10:44.993Z,100.00
2023-08-29T07:13:11.512Z,100.00
2023-08-29T07:15:37.998Z,100.00
2023-08-29T07:18:07.053Z,100.00
2023-08-29T07:20:34.210Z,100.00
2023-08-29T07:23:00.803Z,100.00
2023-08-29T07:25:42.340Z,100.00
2023-08-29T07:28:10.668Z,100.00
2023-08-29T07:30:52.503Z,100.00
2023-08-29T07:33:19.495Z,100.00
2023-08-29T07:35:48.099Z,100.00
2023-08-29T07:38:15.250Z,100.00
2023-08-29T07:40:41.801Z,100.00
2023-08-29T07:43:09.793Z,100.00
2023-08-29T07:45:36.816Z,100.00
2023-08-29T07:48:04.126Z,100.00
2023-08-29T07:50:31.289Z,100.00
2023-08-29T07:52:57.877Z,100.00
2023-08-29T07:55:24.598Z,100.00
2023-08-29T07:57:51.671Z,100.00
2023-08-29T08:00:18.887Z,100.00
2023-08-29T08:02:46.007Z,100.00
2023-08-29T08:05:15.394Z,100.00
2023-08-29T08:07:44.070Z,100.00
2023-08-29T08:10:12.084Z,100.00
2023-08-29T08:12:39.377Z,100.00
2023-08-29T08:15:10.130Z,100.00
2023-08-29T08:17:37.671Z,100.00
2023-08-29T08:20:13.712Z,100.00
2023-08-29T08:22:41.536Z,100.00
2023-08-29T08:25:09.221Z,100.00
2023-08-29T08:27:36.145Z,100.00
2023-08-29T08:30:03.138Z,100.00
2023-08-29T08:32:29.647Z,100.00
2023-08-29T08:34:57.104Z,100.00
2023-08-29T08:37:23.569Z,100.00
2023-08-29T08:39:50.097Z,100.00
2023-08-29T08:42:17.171Z,100.00
2023-08-29T08:44:44.026Z,100.00
2023-08-29T08:47:12.211Z,100.00
2023-08-29T08:49:39.253Z,100.00
2023-08-29T08:52:06.624Z,100.00
2023-08-29T08:54:33.198Z,100.00
2023-08-29T08:56:59.779Z,100.00
2023-08-29T08:59:26.626Z,100.00
2023-08-29T09:01:57.376Z,100.00
2023-08-29T09:04:26.824Z,100.00
2023-08-29T09:06:53.975Z,100.00
2023-08-29T09:09:24.342Z,100.00
2023-08-29T09:11:55.226Z,100.00
2023-08-29T09:14:22.580Z,100.00
2023-08-29T09:17:02.640Z,100.00
2023-08-29T09:19:35.871Z,100.00
2023-08-29T09:22:02.437Z,100.00
2023-08-29T09:24:28.991Z,100.00
2023-08-29T09:26:55.480Z,100.00
2023-08-29T09:29:22.173Z,100.00
2023-08-29T09:31:48.806Z,100.00
2023-08-29T09:34:28.811Z,100.00
2023-08-29T09:36:56.177Z,100.00
2023-08-29T09:39:23.193Z,100.00
2023-08-29T09:42:08.239Z,100.00
2023-08-29T09:44:38.853Z,100.00
2023-08-29T09:47:06.328Z,100.00
2023-08-29T09:49:49.560Z,100.00
2023-08-29T09:52:16.796Z,100.00
2023-08-29T09:54:54.350Z,100.00
2023-08-29T09:57:24.164Z,100.00
2023-08-29T09:59:52.870Z,100.00
2023-08-29T10:02:21.704Z,100.00
2023-08-29T10:04:56.908Z,100.00
2023-08-29T10:07:30.481Z,100.00
2023-08-29T10:09:57.609Z,100.00
2023-08-29T10:12:24.445Z,100.00
2023-08-29T10:14:51.012Z,100.00
2023-08-29T10:17:25.847Z,100.00
2023-08-29T10:19:58.809Z,100.00
2023-08-29T10:22:29.157Z,100.00
2023-08-29T10:24:56.852Z,100.00
2023-08-29T10:27:23.405Z,100.00
2023-08-29T10:29:49.998Z,100.00
2023-08-29T10:32:17.021Z,100.00
2023-08-29T10:34:43.532Z,100.00
2023-08-29T10:37:20.933Z,100.00
2023-08-29T10:39:49.965Z,100.00
2023-08-29T10:42:16.677Z,100.00
2023-08-29T10:44:45.604Z,100.00
2023-08-29T10:47:27.653Z,100.00
2023-08-29T10:49:59.307Z,100.00
2023-08-29T10:52:38.936Z,100.00
2023-08-29T10:55:10.292Z,100.00
2023-08-29T10:57:37.152Z,100.00
2023-08-29T11:00:15.852Z,100.00
2023-08-29T11:02:44.523Z,100.00
2023-08-29T11:05:11.884Z,100.00
2023-08-29T11:07:42.096Z,100.00
2023-08-29T11:10:19.442Z,100.00
2023-08-29T11:13:09.072Z,100.00
2023-08-29T11:15:55.880Z,100.00
2023-08-29T11:18:25.167Z,100.00
2023-08-29T11:20:52.783Z,100.00
2023-08-29T11:23:20.369Z,100.00
2023-08-29T11:25:53.605Z,100.00
2023-08-29T11:28:20.105Z,100.00
2023-08-29T11:30:47.104Z,100.00
2023-08-29T11:33:14.497Z,100.00
2023-08-29T11:35:41.824Z,100.00
2023-08-29T11:38:08.617Z,100.00
2023-08-29T11:40:43.777Z,100.00
2023-08-29T11:43:59.647Z,100.00
2023-08-29T11:46:07.310Z,100.00
2023-08-29T11:48:35.087Z,100.00
2023-08-29T11:51:08.405Z,100.00
2023-08-29T11:53:38.226Z,100.00
2023-08-29T11:56:06.013Z,100.00
2023-08-29T11:58:34.611Z,100.00
2023-08-29T12:01:05.932Z,100.00
2023-08-29T12:03:36.104Z,100.00
2023-08-29T12:06:04.789Z,100.00
2023-08-29T12:08:45.435Z,100.00
2023-08-29T12:11:17.942Z,100.00
2023-08-29T12:14:10.299Z,100.00
2023-08-29T12:16:36.872Z,100.00
2023-08-29T12:19:14.968Z,100.00
2023-08-29T12:21:41.511Z,100.00
2023-08-29T12:24:12.005Z,100.00
2023-08-29T12:26:38.875Z,100.00
2023-08-29T12:29:05.337Z,100.00
2023-08-29T12:31:33.010Z,100.00
2023-08-29T12:33:59.800Z,100.00
2023-08-29T12:36:26.430Z,100.00
2023-08-29T12:38:52.960Z,100.00
2023-08-29T12:41:19.462Z,100.00
2023-08-29T12:43:46.145Z,100.00
2023-08-29T12:46:12.591Z,100.00
2023-08-29T12:48:39.146Z,100.00
2023-08-29T12:51:06.534Z,100.00
2023-08-29T12:53:33.015Z,100.00
2023-08-29T12:56:00.066Z,100.00
2023-08-29T12:58:26.599Z,100.00
2023-08-29T13:00:53.200Z,100.00
2023-08-29T13:03:19.791Z,100.00
2023-08-29T13:05:46.718Z,100.00
2023-08-29T13:08:16.503Z,100.00
2023-08-29T13:10:43.889Z,100.00
2023-08-29T13:13:10.373Z,100.00
2023-08-29T13:15:49.037Z,100.00
2023-08-29T13:18:17.332Z,100.00
2023-08-29T13:20:44.241Z,100.00
2023-08-29T13:23:11.319Z,100.00
2023-08-29T13:25:37.977Z,100.00
2023-08-29T13:28:05.542Z,100.00
2023-08-29T13:30:32.846Z,100.00
2023-08-29T13:32:59.419Z,99.93
2023-08-29T13:35:26.017Z,99.40
2023-08-29T13:37:53.274Z,99.33
2023-08-29T13:40:21.733Z,98.83
2023-08-29T13:42:50.604Z,97.49
2023-08-29T13:45:17.347Z,96.64
2023-08-29T13:47:45.756Z,97.09
2023-08-29T13:50:12.585Z,96.51
2023-08-29T13:52:39.472Z,99.62
2023-08-29T13:55:06.531Z,99.25
2023-08-29T13:57:33.356Z,98.04
2023-08-29T13:59:59.889Z,98.42
2023-08-29T14:02:26.546Z,98.12
2023-08-29T14:04:53.184Z,98.80
2023-08-29T14:07:19.751Z,97.03
2023-08-29T14:09:46.398Z,97.62
2023-08-29T14:12:13.128Z,97.27
2023-08-29T14:14:39.711Z,96.69
2023-08-29T14:17:06.378Z,95.51
2023-08-29T14:19:33.614Z,96.26
2023-08-29T14:22:02.368Z,97.60
2023-08-29T14:24:29.196Z,95.65
2023-08-29T14:26:55.717Z,97.59
2023-08-29T14:29:22.179Z,99.18
2023-08-29T14:31:48.686Z,99.44
2023-08-29T14:34:15.915Z,100.00
2023-08-29T14:36:42.392Z,100.00
2023-08-29T14:39:08.913Z,100.00
2023-08-29T14:41:35.438Z,100.00
2023-08-29T14:44:01.939Z,98.46
2023-08-29T14:46:28.519Z,99.15
2023-08-29T14:48:55.364Z,99.23
2023-08-29T14:51:21.813Z,99.52
2023-08-29T14:53:50.667Z,99.68
2023-08-29T14:56:17.295Z,100.00
2023-08-29T14:58:45.730Z,100.00
2023-08-29T15:01:12.279Z,100.00
2023-08-29T15:03:38.891Z,100.00
2023-08-29T15:06:06.371Z,100.00
2023-08-29T15:08:32.940Z,100.00
2023-08-29T15:10:59.736Z,100.00
2023-08-29T15:13:26.255Z,100.00
2023-08-29T15:15:52.832Z,100.00
2023-08-29T15:18:19.374Z,100.00
2023-08-29T15:20:46.175Z,100.00
2023-08-29T15:23:16.130Z,100.00
2023-08-29T15:25:43.433Z,100.00
2023-08-29T15:28:10.808Z,100.00
2023-08-29T15:30:37.895Z,100.00
2023-08-29T15:33:05.668Z,100.00
2023-08-29T15:35:32.357Z,100.00
2023-08-29T15:37:59.582Z,100.00
2023-08-29T15:40:26.570Z,99.65
2023-08-29T15:42:53.286Z,100.00
2023-08-29T15:45:19.979Z,100.00
2023-08-29T15:47:46.568Z,98.71
2023-08-29T15:50:13.329Z,98.54
2023-08-29T15:52:40.610Z,99.35
2023-08-29T15:55:07.449Z,99.62
2023-08-29T15:57:34.017Z,98.73
2023-08-29T16:00:01.486Z,100.00
2023-08-29T16:02:29.695Z,99.68
2023-08-29T16:04:56.383Z,99.84
2023-08-29T16:07:22.915Z,99.76
2023-08-29T16:09:49.399Z,100.00
2023-08-29T16:12:15.894Z,99.81
2023-08-29T16:14:42.423Z,100.00
2023-08-29T16:17:09.399Z,100.00
2023-08-29T16:19:35.878Z,100.00
2023-08-29T16:22:02.730Z,100.00
2023-08-29T16:24:29.346Z,100.00
2023-08-29T16:26:56.835Z,100.00
2023-08-29T16:29:23.336Z,100.00
2023-08-29T16:31:49.815Z,100.00
2023-08-29T16:34:17.020Z,100.00
2023-08-29T16:36:43.483Z,100.00
2023-08-29T16:39:10.711Z,100.00
2023-08-29T16:41:37.724Z,100.00
2023-08-29T16:44:04.726Z,100.00
2023-08-29T16:46:31.500Z,100.00
2023-08-29T16:48:59.538Z,100.00
2023-08-29T16:51:26.083Z,100.00
2023-08-29T16:53:52.616Z,100.00
2023-08-29T16:56:19.384Z,100.00
2023-08-29T16:58:46.150Z,100.00
2023-08-29T17:01:12.750Z,100.00
2023-08-29T17:03:39.843Z,100.00
2023-08-29T17:06:06.584Z,100.00
2023-08-29T17:08:33.401Z,100.00
2023-08-29T17:10:59.989Z,100.00
2023-08-29T17:13:26.704Z,100.00
2023-08-29T17:15:53.242Z,100.00
2023-08-29T17:18:19.947Z,100.00
2023-08-29T17:20:46.578Z,100.00
2023-08-29T17:23:13.077Z,100.00
2023-08-29T17:25:39.741Z,100.00
2023-08-29T17:28:06.710Z,100.00
2023-08-29T17:30:33.538Z,100.00
2023-08-29T17:33:00.105Z,100.00
2023-08-29T17:35:27.376Z,100.00
2023-08-29T17:37:53.864Z,100.00
2023-08-29T17:40:20.493Z,100.00
2023-08-29T17:42:47.054Z,100.00
2023-08-29T17:45:14.451Z,100.00
2023-08-29T17:47:41.865Z,100.00
2023-08-29T17:50:09.392Z,100.00
2023-08-29T17:52:35.961Z,100.00
2023-08-29T17:55:03.216Z,100.00
2023-08-29T17:57:29.896Z,100.00
2023-08-29T17:59:56.500Z,100.00
2023-08-29T18:02:23.553Z,100.00
2023-08-29T18:04:50.354Z,100.00
2023-08-29T18:07:18.162Z,100.00
2023-08-29T18:10:11.008Z,100.00
2023-08-29T18:12:38.914Z,100.00
2023-08-29T18:15:06.948Z,100.00
2023-08-29T18:17:33.717Z,100.00
2023-08-29T18:20:00.389Z,100.00
2023-08-29T18:22:27.583Z,100.00
2023-08-29T18:24:54.082Z,100.00
2023-08-29T18:27:23.101Z,100.00
2023-08-29T18:29:49.923Z,100.00
2023-08-29T18:32:16.417Z,100.00
2023-08-29T18:34:43.725Z,100.00
2023-08-29T18:37:10.853Z,100.00
2023-08-29T18:39:40.785Z,100.00
2023-08-29T18:42:07.575Z,100.00
2023-08-29T18:44:37.411Z,100.00
2023-08-29T18:47:05.227Z,100.00
2023-08-29T18:49:36.518Z,100.00
2023-08-29T18:52:04.311Z,100.00
2023-08-29T18:54:33.994Z,100.00
2023-08-29T18:57:00.852Z,100.00
2023-08-29T18:59:27.355Z,100.00
2023-08-29T19:01:53.893Z,100.00
2023-08-29T19:04:20.388Z,100.00
2023-08-29T19:06:48.661Z,100.00
2023-08-29T19:09:15.185Z,100.00
2023-08-29T19:11:41.679Z,100.00
2023-08-29T19:14:08.456Z,100.00
2023-08-29T19:16:35.215Z,100.00
2023-08-29T19:19:05.137Z,100.00
2023-08-29T19:21:31.676Z,100.00
2023-08-29T19:24:00.644Z,100.00
2023-08-29T19:26:27.584Z,100.00
2023-08-29T19:28:54.260Z,100.00
2023-08-29T19:31:20.815Z,100.00
2023-08-29T19:33:47.316Z,100.00
2023-08-29T19:36:15.514Z,100.00
2023-08-29T19:38:42.996Z,100.00
2023-08-29T19:41:10.630Z,100.00
2023-08-29T19:43:37.279Z,100.00
2023-08-29T19:46:04.174Z,100.00
2023-08-29T19:48:31.579Z,100.00
2023-08-29T19:50:58.535Z,100.00
2023-08-29T19:53:25.155Z,100.00
2023-08-29T19:55:54.449Z,100.00
2023-08-29T19:58:22.598Z,100.00
2023-08-29T20:00:52.633Z,100.00
2023-08-29T20:03:19.591Z,100.00
2023-08-29T20:05:47.332Z,100.00
2023-08-29T20:08:16.628Z,100.00
2023-08-29T20:10:44.606Z,100.00
2023-08-29T20:13:11.654Z,100.00
2023-08-29T20:15:45.415Z,100.00
2023-08-29T20:18:13.084Z,100.00
2023-08-29T20:20:40.687Z,100.00
2023-08-29T20:23:09.327Z,100.00
2023-08-29T20:25:35.985Z,100.00
2023-08-29T20:28:03.084Z,100.00
2023-08-29T20:30:29.706Z,100.00
2023-08-29T20:32:56.349Z,100.00
2023-08-29T20:35:22.900Z,100.00
2023-08-29T20:37:49.403Z,100.00
2023-08-29T20:40:16.004Z,100.00
2023-08-29T20:42:42.637Z,100.00
2023-08-29T20:45:09.823Z,100.00
2023-08-29T20:47:36.831Z,100.00
2023-08-29T20:50:03.523Z,100.00
2023-08-29T20:52:30.042Z,100.00
2023-08-29T20:54:56.657Z,100.00
2023-08-29T20:57:23.445Z,100.00
2023-08-29T20:59:50.026Z,100.00
2023-08-29T21:02:16.647Z,100.00
2023-08-29T21:04:43.244Z,100.00
2023-08-29T21:07:09.727Z,100.00
2023-08-29T21:09:36.394Z,100.00
2023-08-29T21:12:02.941Z,100.00
2023-08-29T21:14:30.540Z,100.00
2023-08-29T21:16:57.116Z,100.00
2023-08-29T21:19:23.604Z,100.00
2023-08-29T21:21:50.852Z,100.00
2023-08-29T21:24:17.368Z,100.00
2023-08-29T21:26:44.277Z,100.00
2023-08-29T21:29:10.882Z,100.00
2023-08-29T21:31:37.551Z,100.00
2023-08-29T21:34:04.526Z,100.00
2023-08-29T21:36:31.723Z,100.00
2023-08-29T21:38:58.359Z,100.00
2023-08-29T21:41:25.584Z,100.00
2023-08-29T21:43:52.832Z,100.00
2023-08-29T21:46:19.400Z,100.00
2023-08-29T21:48:46.464Z,100.00
2023-08-29T21:51:13.363Z,100.00
2023-08-29T21:53:39.973Z,100.00
2023-08-29T21:56:10.451Z,100.00
2023-08-29T21:58:37.032Z,100.00
2023-08-29T22:01:03.675Z,100.00
2023-08-29T22:03:30.441Z,100.00
2023-08-29T22:05:57.127Z,100.00
2023-08-29T22:08:23.737Z,100.00
2023-08-29T22:10:52.058Z,100.00
2023-08-29T22:13:19.448Z,100.00
2023-08-29T22:15:46.201Z,100.00
2023-08-29T22:18:13.098Z,100.00
2023-08-29T22:20:39.900Z,100.00
2023-08-29T22:23:06.519Z,100.00
2023-08-29T22:25:33.084Z,100.00
2023-08-29T22:27:59.672Z,100.00
2023-08-29T22:30:26.357Z,100.00
2023-08-29T22:32:53.319Z,100.00
2023-08-29T22:35:20.655Z,100.00
2023-08-29T22:37:48.281Z,100.00
2023-08-29T22:40:15.154Z,100.00
2023-08-29T22:42:41.817Z,100.00
2023-08-29T22:45:08.826Z,100.00
2023-08-29T22:47:35.462Z,100.00
2023-08-29T22:50:02.378Z,100.00
2023-08-29T22:52:28.951Z,100.00
2023-08-29T22:54:55.438Z,100.00
2023-08-29T22:57:21.990Z,100.00
2023-08-29T22:59:48.523Z,100.00
2023-08-29T23:02:16.181Z,100.00
2023-08-29T23:04:43.401Z,100.00
2023-08-29T23:07:10.276Z,100.00
2023-08-29T23:09:37.707Z,100.00
2023-08-29T23:12:06.027Z,100.00
2023-08-29T23:14:32.678Z,100.00
2023-08-29T23:16:59.330Z,100.00
2023-08-29T23:19:27.204Z,100.00
2023-08-29T23:21:54.476Z,100.00
2023-08-29T23:24:21.860Z,100.00
2023-08-29T23:26:51.705Z,100.00
2023-08-29T23:29:18.650Z,100.00
2023-08-29T23:31:45.525Z,100.00
2023-08-29T23:34:12.714Z,100.00
2023-08-29T23:36:39.438Z,100.00
2023-08-29T23:39:08.225Z,100.00
2023-08-29T23:41:35.405Z,100.00
2023-08-29T23:44:02.104Z,100.00
2023-08-29T23:46:28.912Z,100.00
2023-08-29T23:48:55.829Z,100.00
2023-08-29T23:51:23.375Z,100.00
2023-08-29T23:53:51.088Z,100.00
2023-08-29T23:56:18.287Z,100.00
2023-08-29T23:58:45.735Z,100.00
